createdAt,value
2019-06-20T00:03:58.178Z,97322.80
2019-06-20T00:09:03.299Z,97322.58
2019-06-20T00:14:09.787Z,97322.89
2019-06-20T00:19:15.046Z,97330.57
2019-06-20T00:24:20.136Z,97322.12
2019-06-20T00:29:25.141Z,97326.16
2019-06-20T00:34:30.002Z,97339.83
2019-06-20T00:39:35.558Z,97336.09
2019-06-20T00:44:40.829Z,97332.52
2019-06-20T00:49:45.679Z,97335.95
2019-06-20T00:54:50.531Z,97326.69
2019-06-20T00:59:55.655Z,97326.94
2019-06-20T01:05:01.336Z,97320.54
2019-06-20T01:10:08.176Z,97320.28
2019-06-20T01:15:13.743Z,97319.68
2019-06-20T01:20:18.872Z,97329.52
2019-06-20T01:25:42.492Z,97320.53
2019-06-20T01:30:47.358Z,97325.56
2019-06-20T01:35:52.484Z,97325.31
2019-06-20T01:40:57.731Z,97323.41
2019-06-20T01:46:02.819Z,97325.76
2019-06-20T01:51:07.774Z,97327.80
2019-06-20T01:56:12.619Z,97336.15
2019-06-20T02:01:17.771Z,97338.84
2019-06-20T02:06:22.718Z,97342.97
2019-06-20T02:11:27.800Z,97347.30
2019-06-20T02:16:32.797Z,97332.16
2019-06-20T02:21:38.444Z,97336.48
2019-06-20T02:26:45.906Z,97338.72
2019-06-20T02:31:50.957Z,97344.77
2019-06-20T02:36:56.004Z,97348.02
2019-06-20T02:42:00.861Z,97347.62
2019-06-20T02:47:06.305Z,97350.20
2019-06-20T02:52:11.192Z,97348.41
2019-06-20T02:57:18.135Z,97349.48
2019-06-20T03:02:23.297Z,97357.12
2019-06-20T03:07:28.797Z,97355.61
2019-06-20T03:12:34.091Z,97358.25
2019-06-20T03:17:40.399Z,97372.71
2019-06-20T03:22:45.432Z,97375.03
2019-06-20T03:27:50.493Z,97376.19
2019-06-20T03:32:55.753Z,97368.70
2019-06-20T03:38:00.609Z,97365.78
2019-06-20T03:43:07.293Z,97365.00
2019-06-20T03:48:12.262Z,97359.52
2019-06-20T03:53:18.330Z,97363.61
2019-06-20T03:58:23.469Z,97372.06
2019-06-20T04:03:28.494Z,97368.25
2019-06-20T04:08:33.878Z,97364.91
2019-06-20T04:13:38.628Z,97363.91
2019-06-20T04:18:43.603Z,97361.09
2019-06-20T04:23:48.342Z,97356.86
2019-06-20T04:28:53.391Z,97361.67
2019-06-20T04:33:58.260Z,97357.84
2019-06-20T04:39:15.619Z,97358.98
2019-06-20T04:44:09.476Z,97358.30
2019-06-20T04:49:14.474Z,97355.87
2019-06-20T04:54:23.022Z,97359.31
2019-06-20T04:59:28.015Z,97352.74
2019-06-20T05:04:33.112Z,97348.00
2019-06-20T05:09:38.330Z,97350.89
2019-06-20T05:14:43.042Z,97355.09
2019-06-20T05:19:48.155Z,97356.95
2019-06-20T05:24:53.125Z,97350.45
2019-06-20T05:29:58.169Z,97353.98
2019-06-20T05:35:03.248Z,97361.18
2019-06-20T05:40:10.064Z,97360.14
2019-06-20T05:45:14.991Z,97358.64
2019-06-20T05:50:20.016Z,97367.88
2019-06-20T05:55:24.801Z,97377.05
2019-06-20T06:00:30.113Z,97374.28
2019-06-20T06:05:35.282Z,97377.50
2019-06-20T06:10:41.345Z,97383.28
2019-06-20T06:15:46.894Z,97384.30
2019-06-20T06:20:51.961Z,97385.95
2019-06-20T06:25:57.562Z,97379.77
2019-06-20T06:31:03.848Z,97382.07
2019-06-20T06:36:09.271Z,97381.35
2019-06-20T06:41:14.167Z,97375.62
2019-06-20T06:46:19.254Z,97371.56
2019-06-20T06:51:24.996Z,97372.13
2019-06-20T06:56:30.140Z,97365.48
2019-06-20T07:01:35.172Z,97362.78
2019-06-20T07:06:41.272Z,97360.77
2019-06-20T07:11:46.045Z,97364.66
2019-06-20T07:17:00.235Z,97357.70
2019-06-20T07:21:58.909Z,97355.73
2019-06-20T07:27:04.076Z,97353.88
2019-06-20T07:32:09.281Z,97346.88
2019-06-20T07:37:17.588Z,97342.83
2019-06-20T07:42:22.412Z,97345.12
2019-06-20T07:47:27.302Z,97340.69
2019-06-20T07:52:32.299Z,97331.44
2019-06-20T07:57:37.537Z,97330.44
2019-06-20T08:02:42.509Z,97328.94
2019-06-20T08:07:47.415Z,97331.69
2019-06-20T08:12:52.547Z,97327.84
2019-06-20T08:17:58.074Z,97325.09
2019-06-20T08:23:03.446Z,97330.59
2019-06-20T08:28:08.274Z,97324.56
2019-06-20T08:33:13.404Z,97322.27
2019-06-20T08:38:18.964Z,97319.27
2019-06-20T08:43:24.314Z,97309.00
2019-06-20T08:48:29.344Z,97313.55
2019-06-20T08:53:34.517Z,97309.13
2019-06-20T08:58:39.500Z,97305.91
2019-06-20T09:03:44.457Z,97305.89
2019-06-20T09:08:49.368Z,97300.63
2019-06-20T09:13:55.364Z,97292.36
2019-06-20T09:19:00.707Z,97287.39
2019-06-20T09:24:05.561Z,97289.34
2019-06-20T09:29:10.642Z,97277.52
2019-06-20T09:34:15.644Z,97276.36
2019-06-20T09:39:21.483Z,97270.73
2019-06-20T09:44:26.716Z,97265.99
2019-06-20T09:49:32.008Z,97253.56
2019-06-20T09:54:38.140Z,97247.58
2019-06-20T09:59:56.127Z,97248.51
2019-06-20T10:04:50.683Z,97242.67
2019-06-20T10:09:56.342Z,97254.18
2019-06-20T10:15:02.453Z,97251.56
2019-06-20T10:20:08.957Z,97243.88
2019-06-20T10:25:19.129Z,97251.88
2019-06-20T10:30:25.740Z,97248.56
2019-06-20T10:35:30.618Z,97240.19
2019-06-20T10:40:35.590Z,97238.61
2019-06-20T10:45:40.960Z,97232.82
2019-06-20T10:50:47.627Z,97227.95
2019-06-20T10:55:52.797Z,97235.56
2019-06-20T11:00:59.787Z,97223.11
2019-06-20T11:06:04.773Z,97237.48
2019-06-20T11:11:09.995Z,97233.67
2019-06-20T11:16:16.193Z,97239.36
2019-06-20T11:21:20.873Z,97243.94
2019-06-20T11:26:27.317Z,97251.98
2019-06-20T11:31:32.634Z,97241.54
2019-06-20T11:36:38.642Z,97241.56
2019-06-20T11:41:43.710Z,97254.21
2019-06-20T11:46:48.554Z,97249.18
2019-06-20T11:51:53.287Z,97248.22
2019-06-20T11:56:59.639Z,97247.98
2019-06-20T12:02:04.902Z,97235.57
2019-06-20T12:07:11.771Z,97226.56
2019-06-20T12:12:18.024Z,97230.62
2019-06-20T12:17:22.959Z,97236.80
2019-06-20T12:22:28.586Z,97231.97
2019-06-20T12:27:33.654Z,97235.53
2019-06-20T12:32:40.627Z,97256.26
2019-06-20T12:37:47.664Z,97295.67
2019-06-20T12:42:52.831Z,97298.83
2019-06-20T12:47:58.328Z,97288.67
2019-06-20T12:53:03.730Z,97305.56
2019-06-20T12:58:10.119Z,97302.65
2019-06-20T13:03:14.940Z,97301.45
2019-06-20T13:08:19.924Z,97302.58
2019-06-20T13:13:25.066Z,97312.47
2019-06-20T13:18:29.904Z,97310.10
2019-06-20T13:23:35.010Z,97319.73
2019-06-20T13:28:59.041Z,97303.24
2019-06-20T13:33:46.916Z,97293.27
2019-06-20T13:38:51.774Z,97305.94
2019-06-20T13:43:56.838Z,97302.95
2019-06-20T13:49:02.528Z,97289.64
2019-06-20T13:54:07.855Z,97284.92
2019-06-20T13:59:12.871Z,97275.61
2019-06-20T14:04:17.624Z,97271.70
2019-06-20T14:09:22.459Z,97267.70
2019-06-20T14:14:27.537Z,97266.18
2019-06-20T14:19:33.250Z,97267.41
2019-06-20T14:24:38.235Z,97283.38
2019-06-20T14:29:44.938Z,97296.78
2019-06-20T14:34:50.370Z,97295.66
2019-06-20T14:39:55.351Z,97291.88
2019-06-20T14:45:00.287Z,97302.78
2019-06-20T14:50:11.190Z,97300.61
2019-06-20T14:55:16.636Z,97307.77
2019-06-20T15:00:23.958Z,97299.91
2019-06-20T15:05:29.860Z,97305.69
2019-06-20T15:10:34.967Z,97302.25
2019-06-20T15:15:40.329Z,97292.76
2019-06-20T15:20:48.310Z,97303.72
2019-06-20T15:25:54.223Z,97297.88
2019-06-20T15:30:59.567Z,97290.65
2019-06-20T15:36:05.947Z,97289.77
2019-06-20T15:41:12.571Z,97283.56
2019-06-20T15:46:17.992Z,97276.16
2019-06-20T15:51:23.400Z,97269.88
2019-06-20T15:56:28.744Z,97275.28
2019-06-20T16:01:35.594Z,97271.92
2019-06-20T16:06:40.659Z,97281.21
2019-06-20T16:11:45.655Z,97277.84
2019-06-20T16:16:50.556Z,97285.56
2019-06-20T16:21:55.636Z,97292.64
2019-06-20T16:27:00.802Z,97283.35
2019-06-20T16:32:05.929Z,97281.89
2019-06-20T16:37:10.794Z,97287.44
2019-06-20T16:42:15.714Z,97283.61
2019-06-20T16:47:22.477Z,97274.26
2019-06-20T16:52:29.291Z,97272.47
2019-06-20T16:57:36.040Z,97280.63
2019-06-20T17:02:41.389Z,97290.67
2019-06-20T17:07:46.299Z,97293.28
2019-06-20T17:12:51.173Z,97282.55
2019-06-20T17:17:56.118Z,97286.01
2019-06-20T17:23:02.468Z,97288.81
2019-06-20T17:28:11.983Z,97278.34
2019-06-20T17:33:19.331Z,97276.78
2019-06-20T17:38:24.850Z,97285.77
2019-06-20T17:43:30.049Z,97280.28
2019-06-20T17:48:37.055Z,97278.09
2019-06-20T17:53:44.061Z,97282.36
2019-06-20T17:58:50.660Z,97283.70
2019-06-20T18:03:56.398Z,97288.09
2019-06-20T18:09:03.023Z,97288.80
2019-06-20T18:14:10.613Z,97290.83
2019-06-20T18:19:16.141Z,97307.19
2019-06-20T18:24:21.885Z,97319.91
2019-06-20T18:29:27.777Z,97307.31
2019-06-20T18:34:38.771Z,97301.13
2019-06-20T18:39:46.198Z,97323.40
2019-06-20T18:44:51.859Z,97322.73
2019-06-20T18:49:57.025Z,97326.73
2019-06-20T18:55:01.999Z,97331.28
2019-06-20T19:00:14.402Z,97313.80
2019-06-20T19:05:19.337Z,97330.34
2019-06-20T19:10:25.329Z,97337.73
2019-06-20T19:15:31.465Z,97359.36
2019-06-20T19:20:36.393Z,97373.66
2019-06-20T19:25:41.938Z,97385.49
2019-06-20T19:30:49.383Z,97390.24
2019-06-20T19:35:54.352Z,97403.17
2019-06-20T19:40:59.405Z,97414.73
2019-06-20T19:46:04.485Z,97427.50
2019-06-20T19:51:09.455Z,97437.14
2019-06-20T19:56:14.683Z,97450.34
2019-06-20T20:01:19.912Z,97449.52
2019-06-20T20:06:25.503Z,97457.20
2019-06-20T20:11:30.952Z,97453.83
2019-06-20T20:16:36.287Z,97450.30
2019-06-20T20:21:41.680Z,97464.17
2019-06-20T20:26:46.728Z,97453.59
2019-06-20T20:31:51.828Z,97450.97
2019-06-20T20:36:58.542Z,97445.06
2019-06-20T20:42:03.607Z,97447.71
2019-06-20T20:47:08.925Z,97439.67
2019-06-20T20:52:16.629Z,97440.87
2019-06-20T20:57:22.044Z,97438.84
2019-06-20T21:02:28.162Z,97437.25
2019-06-20T21:07:34.157Z,97428.77
2019-06-20T21:12:39.417Z,97420.11
2019-06-20T21:17:45.335Z,97420.45
2019-06-20T21:22:50.786Z,97428.01
2019-06-20T21:27:56.178Z,97435.52
2019-06-20T21:33:01.889Z,97429.14
2019-06-20T21:38:06.771Z,97426.80
2019-06-20T21:43:12.812Z,97442.84
2019-06-20T21:48:17.859Z,97449.75
2019-06-20T21:53:22.847Z,97437.80
2019-06-20T21:58:28.176Z,97434.16
2019-06-20T22:03:33.346Z,97423.97
2019-06-20T22:08:39.808Z,97420.84
2019-06-20T22:13:48.818Z,97420.74
2019-06-20T22:18:54.237Z,97420.96
2019-06-20T22:23:59.490Z,97406.09
2019-06-20T22:29:04.514Z,97424.86
2019-06-20T22:34:09.729Z,97441.11
2019-06-20T22:39:14.614Z,97444.69
2019-06-20T22:44:20.021Z,97445.14
2019-06-20T22:49:25.165Z,97445.70
2019-06-20T22:54:30.198Z,97456.48
2019-06-20T22:59:35.193Z,97461.91
2019-06-20T23:04:40.817Z,97463.02
2019-06-20T23:09:45.867Z,97457.13
2019-06-20T23:14:51.306Z,97448.39
2019-06-20T23:19:56.643Z,97451.53
2019-06-20T23:25:01.567Z,97459.83
2019-06-20T23:30:08.104Z,97453.16
2019-06-20T23:35:13.089Z,97442.94
2019-06-20T23:40:18.097Z,97439.92
2019-06-20T23:45:23.159Z,97432.47
2019-06-20T23:50:28.306Z,97422.31
2019-06-20T23:55:33.469Z,97421.17
